createdAt,value
2018-11-12T00:02:06.226Z,100522.62
2018-11-12T00:04:37.480Z,100513.34
2018-11-12T00:07:12.399Z,100513.67
2018-11-12T00:09:43.484Z,100522.28
2018-11-12T00:12:14.521Z,100522.28
2018-11-12T00:14:51.357Z,100530.14
2018-11-12T00:17:22.345Z,100527.13
2018-11-12T00:19:54.602Z,100515.34
2018-11-12T00:22:25.936Z,100514.03
2018-11-12T00:25:00.438Z,100516.75
2018-11-12T00:27:31.911Z,100522.06
2018-11-12T00:30:03.314Z,100528.91
2018-11-12T00:32:34.405Z,100526.84
2018-11-12T00:35:05.619Z,100532.02
2018-11-12T00:37:36.730Z,100530.05
2018-11-12T00:40:14.220Z,100538.75
2018-11-12T00:42:46.055Z,100535.58
2018-11-12T00:45:18.671Z,100544.91
2018-11-12T00:47:49.959Z,100561.12
2018-11-12T00:50:21.388Z,100571.96
2018-11-12T00:52:55.577Z,100577.04
2018-11-12T00:55:29.440Z,100582.38
2018-11-12T00:58:00.640Z,100587.62
2018-11-12T01:00:32.124Z,100589.22
2018-11-12T01:03:05.446Z,100587.81
2018-11-12T01:05:36.859Z,100588.92
2018-11-12T01:08:10.324Z,100587.78
2018-11-12T01:10:42.732Z,100570.00
2018-11-12T01:13:17.295Z,100562.23
2018-11-12T01:15:52.148Z,100554.77
2018-11-12T01:18:23.219Z,100541.48
2018-11-12T01:20:55.488Z,100552.41
2018-11-12T01:23:26.730Z,100547.80
2018-11-12T01:25:57.865Z,100552.73
2018-11-12T01:28:28.996Z,100560.77
2018-11-12T01:31:07.160Z,100568.75
2018-11-12T01:33:38.845Z,100578.83
2018-11-12T01:36:09.965Z,100575.13
2018-11-12T01:38:41.014Z,100559.62
2018-11-12T01:41:12.687Z,100560.86
2018-11-12T01:43:48.645Z,100566.55
2018-11-12T01:46:20.390Z,100564.66
2018-11-12T01:48:53.069Z,100553.17
2018-11-12T01:51:24.103Z,100539.13
2018-11-12T01:53:55.473Z,100535.91
2018-11-12T01:56:26.519Z,100527.01
2018-11-12T01:59:03.851Z,100515.28
2018-11-12T02:01:34.952Z,100510.55
2018-11-12T02:04:06.772Z,100518.69
2018-11-12T02:06:37.808Z,100522.63
2018-11-12T02:09:12.660Z,100525.70
2018-11-12T02:11:47.315Z,100533.75
2018-11-12T02:14:21.439Z,100537.09
2018-11-12T02:16:58.021Z,100529.23
2018-11-12T02:19:33.142Z,100529.69
2018-11-12T02:22:05.514Z,100550.31
2018-11-12T02:24:39.092Z,100558.34
2018-11-12T02:27:10.250Z,100567.44
2018-11-12T02:29:41.460Z,100562.56
2018-11-12T02:32:12.784Z,100552.34
2018-11-12T02:34:44.610Z,100542.42
2018-11-12T02:37:15.782Z,100538.23
2018-11-12T02:39:46.938Z,100539.28
2018-11-12T02:42:18.002Z,100537.35
2018-11-12T02:44:52.925Z,100536.73
2018-11-12T02:47:24.248Z,100514.86
2018-11-12T02:49:55.319Z,100509.98
2018-11-12T02:52:26.446Z,100513.84
2018-11-12T02:54:57.514Z,100510.44
2018-11-12T02:57:28.646Z,100505.30
2018-11-12T03:00:00.330Z,100511.91
2018-11-12T03:02:34.093Z,100507.69
2018-11-12T03:05:05.201Z,100495.91
2018-11-12T03:07:36.310Z,100492.92
2018-11-12T03:10:15.117Z,100482.81
2018-11-12T03:12:46.254Z,100487.13
2018-11-12T03:15:18.525Z,100481.14
2018-11-12T03:17:52.007Z,100485.42
2018-11-12T03:20:24.023Z,100479.27
2018-11-12T03:22:55.130Z,100484.12
2018-11-12T03:25:26.193Z,100488.44
2018-11-12T03:28:01.460Z,100486.73
2018-11-12T03:30:32.527Z,100487.98
2018-11-12T03:33:03.647Z,100485.42
2018-11-12T03:35:35.073Z,100487.03
2018-11-12T03:38:06.327Z,100488.73
2018-11-12T03:40:37.375Z,100492.10
2018-11-12T03:43:08.757Z,100495.80
2018-11-12T03:45:40.188Z,100491.58
2018-11-12T03:48:11.291Z,100501.69
2018-11-12T03:50:42.549Z,100507.95
2018-11-12T03:53:14.430Z,100503.20
2018-11-12T03:55:45.598Z,100513.67
2018-11-12T03:58:16.897Z,100503.72
2018-11-12T04:00:53.581Z,100509.25
2018-11-12T04:03:24.708Z,100502.80
2018-11-12T04:05:56.099Z,100512.17
2018-11-12T04:08:27.459Z,100511.70
2018-11-12T04:11:02.251Z,100507.32
2018-11-12T04:13:33.277Z,100509.77
2018-11-12T04:16:05.268Z,100513.53
2018-11-12T04:18:36.752Z,100509.05
2018-11-12T04:21:10.839Z,100519.36
2018-11-12T04:23:46.201Z,100527.22
2018-11-12T04:26:27.036Z,100517.12
2018-11-12T04:28:58.562Z,100515.33
2018-11-12T04:31:35.108Z,100509.27
2018-11-12T04:34:06.628Z,100509.56
2018-11-12T04:36:37.813Z,100513.00
2018-11-12T04:39:23.404Z,100514.41
2018-11-12T04:41:54.555Z,100512.54
2018-11-12T04:44:25.606Z,100502.84
2018-11-12T04:46:59.899Z,100497.66
2018-11-12T04:49:30.936Z,100502.52
2018-11-12T04:52:03.751Z,100503.30
2018-11-12T04:54:34.957Z,100512.70
2018-11-12T04:57:06.505Z,100504.95
2018-11-12T04:59:42.545Z,100496.52
2018-11-12T05:02:13.903Z,100491.84
2018-11-12T05:04:44.922Z,100491.63
2018-11-12T05:07:16.273Z,100496.05
2018-11-12T05:09:47.303Z,100489.95
2018-11-12T05:12:22.933Z,100490.31
2018-11-12T05:14:54.401Z,100484.48
2018-11-12T05:17:25.430Z,100501.98
2018-11-12T05:19:56.588Z,100502.70
2018-11-12T05:22:27.674Z,100515.51
2018-11-12T05:25:03.847Z,100499.06
2018-11-12T05:27:54.521Z,100506.59
2018-11-12T05:30:30.706Z,100497.64
2018-11-12T05:33:01.719Z,100489.56
2018-11-12T05:35:32.752Z,100501.63
2018-11-12T05:38:06.006Z,100500.67
2018-11-12T05:40:36.997Z,100500.99
2018-11-12T05:43:10.133Z,100514.16
2018-11-12T05:45:41.550Z,100529.45
2018-11-12T05:48:14.887Z,100530.76
2018-11-12T05:50:46.019Z,100510.29
2018-11-12T05:53:26.220Z,100495.31
2018-11-12T05:55:58.230Z,100492.23
2018-11-12T05:58:30.198Z,100500.91
2018-11-12T06:01:01.257Z,100500.84
2018-11-12T06:03:32.390Z,100509.17
2018-11-12T06:06:04.600Z,100511.66
2018-11-12T06:08:40.289Z,100510.29
2018-11-12T06:11:11.686Z,100502.89
2018-11-12T06:13:45.404Z,100496.41
2018-11-12T06:16:17.198Z,100506.53
2018-11-12T06:18:54.875Z,100508.75
2018-11-12T06:21:28.816Z,100505.62
2018-11-12T06:24:02.953Z,100509.48
2018-11-12T06:26:37.485Z,100502.25
2018-11-12T06:29:18.136Z,100500.02
2018-11-12T06:31:49.446Z,100495.34
2018-11-12T06:34:21.757Z,100498.25
2018-11-12T06:36:53.284Z,100500.38
2018-11-12T06:39:24.340Z,100494.39
2018-11-12T06:41:56.092Z,100500.77
2018-11-12T06:44:27.484Z,100500.88
2018-11-12T06:47:01.109Z,100506.17
2018-11-12T06:49:36.511Z,100499.17
2018-11-12T06:52:07.530Z,100497.56
2018-11-12T06:54:41.309Z,100500.48
2018-11-12T06:57:15.593Z,100505.42
2018-11-12T06:59:46.560Z,100513.12
2018-11-12T07:02:17.582Z,100520.55
2018-11-12T07:04:50.440Z,100532.05
2018-11-12T07:07:21.399Z,100525.95
2018-11-12T07:09:52.450Z,100526.25
2018-11-12T07:12:23.617Z,100518.98
2018-11-12T07:14:55.975Z,100518.72
2018-11-12T07:17:30.190Z,100514.09
2018-11-12T07:20:01.244Z,100503.39
2018-11-12T07:22:32.270Z,100495.92
2018-11-12T07:25:05.259Z,100499.19
2018-11-12T07:27:39.029Z,100503.68
2018-11-12T07:30:21.869Z,100499.85
2018-11-12T07:32:53.756Z,100500.67
2018-11-12T07:35:29.272Z,100500.94
2018-11-12T07:38:00.417Z,100503.72
2018-11-12T07:40:31.594Z,100503.70
2018-11-12T07:43:02.676Z,100503.98
2018-11-12T07:45:36.651Z,100504.78
2018-11-12T07:48:07.933Z,100494.86
2018-11-12T07:50:39.092Z,100483.83
2018-11-12T07:53:10.489Z,100477.94
2018-11-12T07:55:52.021Z,100477.84
2018-11-12T07:58:26.830Z,100462.80
2018-11-12T08:00:57.924Z,100478.81
2018-11-12T08:03:31.105Z,100477.28
2018-11-12T08:06:02.093Z,100475.17
2018-11-12T08:08:37.099Z,100474.26
2018-11-12T08:11:10.464Z,100467.59
2018-11-12T08:13:43.030Z,100453.38
2018-11-12T08:16:15.892Z,100471.93
2018-11-12T08:18:49.810Z,100462.59
2018-11-12T08:21:23.409Z,100459.53
2018-11-12T08:23:59.710Z,100452.64
2018-11-12T08:26:31.050Z,100459.84
2018-11-12T08:29:02.177Z,100460.98
2018-11-12T08:31:36.355Z,100457.27
2018-11-12T08:34:09.416Z,100443.60
2018-11-12T08:37:49.674Z,100449.88
2018-11-12T08:40:24.772Z,100451.48
2018-11-12T08:42:56.160Z,100455.97
2018-11-12T08:45:27.200Z,100460.75
2018-11-12T08:47:58.654Z,100454.66
2018-11-12T08:50:32.191Z,100447.72
2018-11-12T08:53:03.855Z,100444.63
2018-11-12T08:55:35.012Z,100444.81
2018-11-12T08:58:06.588Z,100447.82
2018-11-12T09:00:41.524Z,100440.42
2018-11-12T09:03:15.777Z,100424.51
2018-11-12T09:05:48.675Z,100427.88
2018-11-12T09:08:21.209Z,100421.33
2018-11-12T09:10:56.038Z,100413.36
2018-11-12T09:13:27.160Z,100400.08
2018-11-12T09:15:58.564Z,100416.16
2018-11-12T09:18:29.592Z,100431.42
2018-11-12T09:21:00.803Z,100427.98
2018-11-12T09:23:36.903Z,100434.37
2018-11-12T09:26:11.091Z,100441.28
2018-11-12T09:28:42.376Z,100441.48
2018-11-12T09:31:20.059Z,100441.28
2018-11-12T09:36:26.215Z,100439.91
2018-11-12T09:39:00.834Z,100426.44
2018-11-12T09:41:34.284Z,100426.34
2018-11-12T09:44:05.257Z,100423.00
2018-11-12T09:46:36.336Z,100431.93
2018-11-12T09:49:10.577Z,100429.59
2018-11-12T09:51:49.418Z,100427.25
2018-11-12T09:54:21.254Z,100420.98
2018-11-12T09:56:57.254Z,100422.50
2018-11-12T09:59:34.136Z,100419.70
2018-11-12T10:02:06.441Z,100408.71
2018-11-12T10:04:43.713Z,100405.45
2018-11-12T10:07:15.271Z,100404.33
2018-11-12T10:09:48.699Z,100409.02
2018-11-12T10:12:23.608Z,100402.93
2018-11-12T10:14:57.700Z,100392.96
2018-11-12T10:17:29.563Z,100396.14
2018-11-12T10:20:08.633Z,100394.12
2018-11-12T10:22:39.747Z,100393.66
2018-11-12T10:25:11.205Z,100386.98
2018-11-12T10:27:42.263Z,100385.43
2018-11-12T10:30:19.165Z,100384.38
2018-11-12T10:32:58.520Z,100382.65
2018-11-12T10:35:35.744Z,100385.94
2018-11-12T10:38:08.405Z,100376.61
2018-11-12T10:40:43.198Z,100380.38
2018-11-12T10:43:15.208Z,100369.83
2018-11-12T10:45:52.797Z,100385.73
2018-11-12T10:48:26.530Z,100383.42
2018-11-12T10:51:05.035Z,100376.64
2018-11-12T10:53:36.354Z,100368.42
2018-11-12T10:56:10.474Z,100376.84
2018-11-12T10:58:42.052Z,100368.19
2018-11-12T11:01:32.355Z,100359.44
2018-11-12T11:04:25.372Z,100360.66
2018-11-12T11:06:56.512Z,100358.18
2018-11-12T11:09:29.295Z,100370.17
2018-11-12T11:12:12.494Z,100367.80
2018-11-12T11:14:46.027Z,100369.50
2018-11-12T11:17:20.926Z,100377.66
2018-11-12T11:19:55.388Z,100375.87
2018-11-12T11:22:27.825Z,100365.56
2018-11-12T11:25:02.090Z,100370.36
2018-11-12T11:27:36.956Z,100367.83
2018-11-12T11:30:15.885Z,100376.36
2018-11-12T11:32:47.889Z,100379.25
2018-11-12T11:35:21.303Z,100378.16
2018-11-12T11:37:54.218Z,100393.44
2018-11-12T11:40:27.972Z,100389.37
2018-11-12T11:43:00.113Z,100395.47
2018-11-12T11:45:32.420Z,100395.23
2018-11-12T11:48:04.982Z,100396.78
2018-11-12T11:50:37.869Z,100388.03
2018-11-12T11:53:14.016Z,100387.41
2018-11-12T11:55:43.447Z,100382.35
2018-11-12T11:58:14.571Z,100378.14
2018-11-12T12:00:45.632Z,100381.00
2018-11-12T12:03:16.999Z,100375.56
2018-11-12T12:05:50.835Z,100372.56
2018-11-12T12:08:22.264Z,100373.88
2018-11-12T12:10:54.124Z,100354.05
2018-11-12T12:13:29.759Z,100357.14
2018-11-12T12:16:03.054Z,100355.57
2018-11-12T12:18:35.661Z,100357.59
2018-11-12T12:21:09.109Z,100356.84
2018-11-12T12:23:40.811Z,100366.67
2018-11-12T12:26:12.235Z,100364.73
2018-11-12T12:28:44.605Z,100372.09
2018-11-12T12:31:15.866Z,100369.44
2018-11-12T12:33:55.355Z,100360.97
2018-11-12T12:36:29.422Z,100370.70
2018-11-12T12:39:05.697Z,100362.55
2018-11-12T12:41:36.756Z,100376.50
2018-11-12T12:44:08.108Z,100386.41
2018-11-12T12:46:41.777Z,100380.36
2018-11-12T12:49:13.156Z,100370.53
2018-11-12T12:51:44.264Z,100371.47
2018-11-12T12:54:19.036Z,100372.79
2018-11-12T12:56:53.318Z,100361.25
2018-11-12T12:59:24.593Z,100363.36
2018-11-12T13:01:57.791Z,100367.08
2018-11-12T13:04:31.939Z,100364.09
2018-11-12T13:07:02.731Z,100359.61
2018-11-12T13:09:35.594Z,100369.02
2018-11-12T13:12:10.066Z,100382.95
2018-11-12T13:14:41.520Z,100379.86
2018-11-12T13:17:22.845Z,100400.11
2018-11-12T13:19:56.894Z,100413.67
2018-11-12T13:22:29.118Z,100432.81
2018-11-12T13:25:02.631Z,100434.19
2018-11-12T13:27:33.724Z,100448.45
2018-11-12T13:30:08.678Z,100441.34
2018-11-12T13:32:47.113Z,100437.37
2018-11-12T13:35:20.229Z,100443.73
2018-11-12T13:37:57.694Z,100464.53
2018-11-12T13:40:31.618Z,100461.38
2018-11-12T13:43:02.735Z,100487.31
2018-11-12T13:45:36.771Z,100502.20
2018-11-12T13:48:08.433Z,100489.58
2018-11-12T13:50:40.582Z,100505.67
2018-11-12T13:53:12.964Z,100522.20
2018-11-12T13:55:45.340Z,100513.33
2018-11-12T13:58:18.366Z,100529.73
2018-11-12T14:00:50.235Z,100521.41
2018-11-12T14:03:24.522Z,100523.31
2018-11-12T14:05:57.965Z,100527.39
2018-11-12T14:08:30.677Z,100541.66
2018-11-12T14:11:01.747Z,100536.72
2018-11-12T14:13:32.901Z,100535.72
2018-11-12T14:16:04.371Z,100528.95
2018-11-12T14:18:41.041Z,100533.05
2018-11-12T14:21:15.118Z,100541.13
2018-11-12T14:23:46.132Z,100561.59
2018-11-12T14:26:21.015Z,100548.05
2018-11-12T14:28:55.123Z,100545.73
2018-11-12T14:31:27.204Z,100554.86
2018-11-12T14:33:58.612Z,100570.48
2018-11-12T14:36:30.451Z,100579.96
2018-11-12T14:39:01.956Z,100565.69
2018-11-12T14:41:35.251Z,100571.38
2018-11-12T14:44:08.643Z,100582.95
2018-11-12T14:46:39.703Z,100583.30
2018-11-12T14:49:13.371Z,100585.74
2018-11-12T14:51:46.233Z,100585.93
2018-11-12T14:54:18.641Z,100577.33
2018-11-12T14:56:49.785Z,100574.02
2018-11-12T14:59:22.322Z,100565.03
2018-11-12T15:01:53.494Z,100564.28
2018-11-12T15:04:28.060Z,100580.71
2018-11-12T15:07:04.243Z,100598.16
2018-11-12T15:09:35.985Z,100592.07
2018-11-12T15:12:08.460Z,100602.40
2018-11-12T15:14:40.918Z,100605.21
2018-11-12T15:17:17.154Z,100611.69
2018-11-12T15:19:50.725Z,100613.52
2018-11-12T15:22:27.284Z,100619.73
2018-11-12T15:24:59.996Z,100622.73
2018-11-12T15:27:34.226Z,100625.64
2018-11-12T15:30:08.879Z,100630.70
2018-11-12T15:32:42.560Z,100639.21
2018-11-12T15:35:16.198Z,100648.05
2018-11-12T15:37:48.480Z,100645.88
2018-11-12T15:40:23.999Z,100652.91
2018-11-12T15:42:55.352Z,100655.15
2018-11-12T15:45:27.966Z,100660.33
2018-11-12T15:48:00.036Z,100655.05
2018-11-12T15:50:41.061Z,100668.28
2018-11-12T15:53:32.226Z,100667.35
2018-11-12T15:56:06.012Z,100668.67
2018-11-12T15:58:45.134Z,100682.44
2018-11-12T16:01:21.943Z,100679.69
2018-11-12T16:03:58.042Z,100679.09
2018-11-12T16:06:29.647Z,100685.19
2018-11-12T16:09:06.322Z,100676.04
2018-11-12T16:11:44.372Z,100671.08
2018-11-12T16:14:19.383Z,100688.44
2018-11-12T16:16:50.793Z,100693.33
2018-11-12T16:19:23.583Z,100693.44
2018-11-12T16:21:58.509Z,100708.06
2018-11-12T16:24:30.522Z,100716.51
2018-11-12T16:27:03.395Z,100723.31
2018-11-12T16:29:36.605Z,100718.34
2018-11-12T16:32:11.785Z,100735.11
2018-11-12T16:34:44.243Z,100750.36
2018-11-12T16:37:27.188Z,100747.30
2018-11-12T16:40:02.287Z,100752.73
2018-11-12T16:42:34.173Z,100756.27
2018-11-12T16:45:10.974Z,100759.91
2018-11-12T16:47:45.980Z,100763.11
2018-11-12T16:50:18.522Z,100746.52
2018-11-12T16:52:53.724Z,100763.97
2018-11-12T16:55:38.069Z,100779.78
2018-11-12T16:58:12.433Z,100780.88
2018-11-12T17:00:51.462Z,100789.08
2018-11-12T17:03:31.552Z,100805.17
2018-11-12T17:06:12.871Z,100807.18
2018-11-12T17:08:45.900Z,100810.91
2018-11-12T17:11:18.768Z,100823.48
2018-11-12T17:13:53.871Z,100823.57
2018-11-12T17:16:25.006Z,100830.33
2018-11-12T17:18:57.434Z,100814.23
2018-11-12T17:21:30.116Z,100822.53
2018-11-12T17:24:02.980Z,100830.36
2018-11-12T17:26:35.991Z,100845.41
2018-11-12T17:29:10.145Z,100859.84
2018-11-12T17:31:44.343Z,100861.08
2018-11-12T17:34:17.387Z,100874.47
2018-11-12T17:36:49.533Z,100861.97
2018-11-12T17:39:23.779Z,100861.06
2018-11-12T17:41:55.983Z,100854.98
2018-11-12T17:44:28.715Z,100870.16
2018-11-12T17:47:06.335Z,100888.74
2018-11-12T17:49:40.422Z,100899.62
2018-11-12T17:52:13.359Z,100895.45
2018-11-12T17:54:44.928Z,100908.10
2018-11-12T17:57:18.413Z,100894.69
2018-11-12T17:59:51.674Z,100899.45
2018-11-12T18:02:25.501Z,100895.69
2018-11-12T18:04:59.504Z,100893.22
2018-11-12T18:07:32.341Z,100900.41
2018-11-12T18:10:04.809Z,100895.69
2018-11-12T18:12:39.108Z,100906.27
2018-11-12T18:15:18.208Z,100920.05
2018-11-12T18:17:50.856Z,100926.80
2018-11-12T18:20:26.823Z,100924.75
2018-11-12T18:22:58.404Z,100934.94
2018-11-12T18:25:30.907Z,100943.75
2018-11-12T18:28:08.739Z,100932.65
2018-11-12T18:30:42.262Z,100939.41
2018-11-12T18:33:15.065Z,100949.23
2018-11-12T18:35:47.594Z,100968.61
2018-11-12T18:38:19.849Z,100978.70
2018-11-12T18:40:53.796Z,100966.50
2018-11-12T18:43:27.774Z,100965.89
2018-11-12T18:46:01.147Z,100960.48
2018-11-12T18:48:33.972Z,100943.44
2018-11-12T18:51:06.323Z,100953.38
2018-11-12T18:53:39.408Z,100960.89
2018-11-12T18:56:12.509Z,100973.20
2018-11-12T18:58:46.217Z,100974.52
2018-11-12T19:01:17.874Z,100976.32
2018-11-12T19:03:51.735Z,100976.47
2018-11-12T19:06:37.202Z,100977.48
2018-11-12T19:09:11.320Z,100998.45
2018-11-12T19:11:46.387Z,101020.01
2018-11-12T19:14:22.684Z,101027.42
2018-11-12T19:16:57.583Z,101018.95
2018-11-12T19:19:37.483Z,101018.24
2018-11-12T19:22:09.820Z,101018.95
2018-11-12T19:24:44.591Z,101026.56
2018-11-12T19:27:21.249Z,101013.20
2018-11-12T19:30:01.219Z,101019.70
2018-11-12T19:32:40.070Z,101023.09
2018-11-12T19:35:15.437Z,101015.37
2018-11-12T19:37:50.392Z,101019.25
2018-11-12T19:40:25.409Z,101000.09
2018-11-12T19:43:01.868Z,101000.64
2018-11-12T19:45:39.786Z,101030.64
2018-11-12T19:48:18.285Z,101033.11
2018-11-12T19:50:57.097Z,101046.36
2018-11-12T19:53:31.234Z,101042.12
2018-11-12T19:56:05.842Z,101024.77
2018-11-12T19:58:41.146Z,101020.09
2018-11-12T20:01:16.344Z,101023.47
2018-11-12T20:04:00.071Z,101027.95
2018-11-12T20:06:35.959Z,101029.08
2018-11-12T20:09:12.525Z,101027.26
2018-11-12T20:11:46.266Z,101025.31
2018-11-12T20:14:22.905Z,101031.95
2018-11-12T20:16:59.944Z,101040.66
2018-11-12T20:19:34.198Z,101039.42
2018-11-12T20:22:11.676Z,101048.59
2018-11-12T20:24:46.365Z,101045.80
2018-11-12T20:27:22.901Z,101048.97
2018-11-12T20:29:57.354Z,101044.97
2018-11-12T20:32:31.145Z,101046.28
2018-11-12T20:35:06.841Z,101053.06
2018-11-12T20:37:43.173Z,101075.80
2018-11-12T20:40:18.938Z,101077.20
2018-11-12T20:42:54.059Z,101077.66
2018-11-12T20:45:29.613Z,101079.88
2018-11-12T20:48:04.402Z,101071.56
2018-11-12T20:50:39.666Z,101075.44
2018-11-12T20:53:12.877Z,101081.59
2018-11-12T20:55:46.806Z,101080.28
2018-11-12T20:58:20.702Z,101063.09
2018-11-12T21:00:57.141Z,101061.78
2018-11-12T21:03:33.570Z,101062.18
2018-11-12T21:06:07.980Z,101057.30
2018-11-12T21:08:45.765Z,101062.78
2018-11-12T21:11:19.540Z,101051.53
2018-11-12T21:13:54.835Z,101043.12
2018-11-12T21:16:27.580Z,101054.06
2018-11-12T21:19:02.070Z,101055.06
2018-11-12T21:21:36.830Z,101059.70
2018-11-12T21:24:14.902Z,101070.25
2018-11-12T21:26:54.097Z,101066.31
2018-11-12T21:29:28.235Z,101062.78
2018-11-12T21:32:14.029Z,101053.91
2018-11-12T21:34:47.545Z,101056.14
2018-11-12T21:37:21.202Z,101060.47
2018-11-12T21:39:59.797Z,101067.80
2018-11-12T21:42:35.173Z,101064.80
2018-11-12T21:45:09.941Z,101062.78
2018-11-12T21:47:51.972Z,101053.20
2018-11-12T21:50:26.513Z,101063.23
2018-11-12T21:53:00.232Z,101066.00
2018-11-12T21:55:39.714Z,101073.95
2018-11-12T21:58:14.263Z,101065.55
2018-11-12T22:00:47.299Z,101065.64
2018-11-12T22:03:20.401Z,101073.19
2018-11-12T22:05:56.996Z,101058.91
2018-11-12T22:08:30.629Z,101069.00
2018-11-12T22:11:04.891Z,101066.23
2018-11-12T22:13:38.629Z,101063.84
2018-11-12T22:16:12.654Z,101077.60
2018-11-12T22:18:46.682Z,101088.88
2018-11-12T22:21:19.555Z,101088.71
2018-11-12T22:23:52.617Z,101090.08
2018-11-12T22:26:26.970Z,101092.98
2018-11-12T22:29:00.992Z,101097.84
2018-11-12T22:31:35.330Z,101099.70
2018-11-12T22:34:09.222Z,101096.54
2018-11-12T22:36:45.841Z,101108.24
2018-11-12T22:39:18.879Z,101107.39
2018-11-12T22:41:53.666Z,101106.25
2018-11-12T22:44:25.073Z,101106.16
2018-11-12T22:46:56.141Z,101106.08
2018-11-12T22:49:27.561Z,101111.19
2018-11-12T22:52:02.664Z,101109.88
2018-11-12T22:54:33.768Z,101114.97
2018-11-12T22:57:04.937Z,101118.13
2018-11-12T22:59:36.081Z,101119.67
2018-11-12T23:02:07.218Z,101116.24
2018-11-12T23:04:38.424Z,101114.94
2018-11-12T23:07:09.514Z,101115.25
2018-11-12T23:09:40.577Z,101119.27
2018-11-12T23:12:14.061Z,101120.12
2018-11-12T23:15:04.901Z,101112.26
2018-11-12T23:17:35.986Z,101102.45
2018-11-12T23:20:17.631Z,101108.02
2018-11-12T23:22:49.247Z,101116.73
2018-11-12T23:25:23.038Z,101124.24
2018-11-12T23:27:54.917Z,101111.68
2018-11-12T23:30:26.382Z,101115.83
2018-11-12T23:33:00.307Z,101118.37
2018-11-12T23:35:33.279Z,101122.62
2018-11-12T23:38:04.421Z,101128.21
2018-11-12T23:40:37.991Z,101139.47
2018-11-12T23:43:08.984Z,101126.05
2018-11-12T23:45:40.399Z,101125.67
2018-11-12T23:48:12.011Z,101117.41
2018-11-12T23:50:43.287Z,101121.75
2018-11-12T23:53:14.424Z,101103.68
2018-11-12T23:55:45.560Z,101104.59
2018-11-12T23:58:16.702Z,101107.66
